Time;durP1;ratioP1;P1;durP2;ratioP2;P2;SDS_P1;SDS_P2;PMS_P1;PMS_P2;Temp;Humidity;BMP_temperature;BMP_pressure;BME280_temperature;BME280_humidity;BME280_pressure;Samples;Min_cycle;Max_cycle;Signal;HPM_P1;HPM_P2
2023/06/23 00:01:51;;;;;;;0.10;0.10;;;;;;;21.15;nan;100461.53;5044210;28;19920;-80
2023/06/23 00:04:16;;;;;;;0.10;0.10;;;;;;;21.23;nan;100453.16;5063210;28;20051;-80
2023/06/23 00:06:42;;;;;;;0.10;0.10;;;;;;;21.27;nan;100457.03;5063646;28;20125;-79
2023/06/23 00:09:13;;;;;;;0.00;0.00;;;;;;;21.31;nan;100460.09;5047527;28;20665;-80
2023/06/23 00:11:42;;;;;;;0.10;0.10;;;;;;;21.34;nan;100460.47;5017569;28;20517;-79
2023/06/23 00:14:08;;;;;;;0.10;0.10;;;;;;;21.38;nan;100467.06;5035706;28;20034;-81
2023/06/23 00:16:34;;;;;;;0.10;0.10;;;;;;;21.24;nan;100464.72;5030148;28;20044;-81
2023/06/23 00:18:59;;;;;;;0.10;0.10;;;;;;;21.26;nan;100462.63;5072768;28;20048;-81
2023/06/23 00:21:24;;;;;;;0.10;0.10;;;;;;;21.26;nan;100468.00;5052551;28;20029;-80
2023/06/23 00:23:50;;;;;;;0.00;0.00;;;;;;;21.22;nan;100470.34;5054813;28;20276;-82
2023/06/23 00:26:15;;;;;;;0.10;0.10;;;;;;;21.26;nan;100474.25;5053555;28;20684;-80
2023/06/23 00:28:41;;;;;;;0.10;0.10;;;;;;;21.27;nan;100469.69;5037509;28;20092;-80
2023/06/23 00:31:06;;;;;;;0.10;0.10;;;;;;;21.22;nan;100473.03;5042399;28;20043;-80
2023/06/23 00:33:33;;;;;;;0.10;0.10;;;;;;;21.26;nan;100468.00;5082197;28;20059;-81
2023/06/23 00:35:58;;;;;;;0.10;0.10;;;;;;;21.28;nan;100490.94;5067998;28;20076;-82
2023/06/23 00:38:25;;;;;;;0.00;0.00;;;;;;;21.21;nan;100495.56;5060565;28;20029;-80
2023/06/23 00:40:50;;;;;;;0.10;0.10;;;;;;;21.29;nan;100487.22;5055292;28;20029;-82
2023/06/23 00:43:16;;;;;;;0.00;0.00;;;;;;;21.30;nan;100491.56;5057231;28;20033;-84
2023/06/23 00:45:41;;;;;;;0.10;0.10;;;;;;;21.32;nan;100489.47;5063534;28;20029;-84
2023/06/23 00:48:08;;;;;;;0.10;0.10;;;;;;;21.35;nan;100496.25;5063934;28;20032;-82
2023/06/23 00:50:34;;;;;;;0.10;0.10;;;;;;;21.36;nan;100504.13;5056903;28;20802;-83
2023/06/23 00:52:59;;;;;;;0.10;0.10;;;;;;;21.41;nan;100507.00;5056817;28;20037;-84
2023/06/23 00:55:28;;;;;;;0.10;0.10;;;;;;;21.33;nan;100506.41;5056308;28;20102;-83
2023/06/23 00:57:55;;;;;;;0.10;0.10;;;;;;;21.28;nan;100512.47;5038500;28;20041;-83
2023/06/23 01:00:22;;;;;;;0.08;0.08;;;;;;;21.30;nan;100529.22;5040558;28;20116;-84
2023/06/23 01:02:53;;;;;;;0.08;0.08;;;;;;;21.28;nan;100530.47;5043085;28;20112;-83
2023/06/23 01:05:32;;;;;;;0.10;0.10;;;;;;;20.90;nan;100532.25;5056056;28;20044;-81
2023/06/23 01:08:38;;;;;;;0.10;0.10;;;;;;;20.56;nan;100537.06;5053160;28;20100;-81
2023/06/23 01:11:24;;;;;;;0.10;0.10;;;;;;;20.48;nan;100541.88;5035379;28;20521;-82
2023/06/23 01:14:04;;;;;;;0.10;0.10;;;;;;;20.51;nan;100547.63;5052712;28;20186;-80
2023/06/23 01:16:37;;;;;;;0.10;0.10;;;;;;;20.68;nan;100542.56;5050797;28;20033;-80
2023/06/23 01:19:25;;;;;;;0.10;0.10;;;;;;;20.68;nan;100547.94;5025502;28;20502;-80
2023/06/23 01:22:08;;;;;;;0.00;0.00;;;;;;;20.68;nan;100556.00;5032361;28;20045;-81
2023/06/23 01:25:09;;;;;;;0.00;0.00;;;;;;;20.74;nan;100565.06;5040603;28;20028;-81
2023/06/23 01:27:58;;;;;;;0.10;0.10;;;;;;;20.81;nan;100570.38;5008270;28;20124;-81
2023/06/23 01:30:26;;;;;;;0.10;0.10;;;;;;;20.85;nan;100567.03;5055534;28;20037;-81
2023/06/23 01:32:58;;;;;;;0.10;0.10;;;;;;;20.83;nan;100577.19;5068436;28;20033;-80
2023/06/23 01:35:28;;;;;;;0.10;0.10;;;;;;;20.83;nan;100566.44;5024160;28;20037;-81
2023/06/23 01:38:02;;;;;;;0.10;0.10;;;;;;;20.87;nan;100578.41;5052530;28;20120;-80
2023/06/23 01:40:27;;;;;;;0.10;0.10;;;;;;;20.89;nan;100581.69;5052496;28;20037;-81
2023/06/23 01:42:56;;;;;;;0.10;0.10;;;;;;;20.95;nan;100575.47;5051175;28;20029;-80
2023/06/23 01:45:24;;;;;;;0.10;0.10;;;;;;;20.98;nan;100587.63;5055083;28;20063;-81
2023/06/23 01:47:51;;;;;;;0.10;0.10;;;;;;;20.99;nan;100586.59;5038332;28;20030;-81
2023/06/23 01:50:20;;;;;;;0.10;0.10;;;;;;;20.78;nan;100601.19;5050124;28;20036;-82
2023/06/23 01:52:47;;;;;;;0.03;0.03;;;;;;;20.42;nan;100593.75;5060678;28;20064;-81
2023/06/23 01:55:16;;;;;;;0.10;0.10;;;;;;;20.18;nan;100590.78;5054344;28;20498;-82
2023/06/23 01:57:42;;;;;;;0.10;0.10;;;;;;;19.99;nan;100587.13;5074342;28;20064;-83
2023/06/23 02:00:13;;;;;;;0.10;0.10;;;;;;;19.91;nan;100584.69;5056959;28;20044;-84
2023/06/23 02:02:40;;;;;;;0.10;0.10;;;;;;;19.79;nan;100581.84;5047097;28;20183;-84
2023/06/23 02:05:07;;;;;;;0.10;0.10;;;;;;;19.69;nan;100582.28;5072662;28;20041;-81
2023/06/23 02:07:34;;;;;;;0.10;0.10;;;;;;;19.76;nan;100581.41;5052438;28;20029;-81
2023/06/23 02:10:01;;;;;;;0.10;0.10;;;;;;;19.90;nan;100569.59;5037165;28;20067;-83
2023/06/23 02:12:27;;;;;;;0.10;0.10;;;;;;;20.07;nan;100573.47;5035662;28;20025;-82
2023/06/23 02:14:52;;;;;;;0.10;0.10;;;;;;;20.21;nan;100562.66;5036936;28;20029;-82
2023/06/23 02:17:18;;;;;;;0.10;0.10;;;;;;;20.34;nan;100555.38;5024693;28;20042;-82
2023/06/23 02:19:47;;;;;;;0.10;0.10;;;;;;;20.40;nan;100566.28;5059634;28;20720;-82
2023/06/23 02:22:17;;;;;;;0.10;0.10;;;;;;;20.44;nan;100565.63;5047787;28;20036;-81
2023/06/23 02:24:43;;;;;;;0.10;0.10;;;;;;;20.51;nan;100570.97;5046248;28;20033;-82
2023/06/23 02:27:09;;;;;;;0.10;0.10;;;;;;;20.54;nan;100565.97;5059405;28;20037;-82
2023/06/23 02:29:35;;;;;;;0.10;0.10;;;;;;;20.56;nan;100572.00;5032069;28;20048;-84
2023/06/23 02:32:01;;;;;;;0.10;0.10;;;;;;;20.54;nan;100574.03;5034643;28;20064;-82
2023/06/23 02:34:27;;;;;;;0.10;0.10;;;;;;;20.62;nan;100569.47;5041130;28;20037;-83
2023/06/23 02:36:58;;;;;;;0.10;0.10;;;;;;;20.51;nan;100579.84;5036120;28;20052;-81
2023/06/23 02:39:26;;;;;;;0.10;0.10;;;;;;;20.51;nan;100584.41;5053762;28;20033;-81
2023/06/23 02:41:56;;;;;;;0.00;0.00;;;;;;;20.57;nan;100588.97;5060834;28;20037;-81
2023/06/23 02:44:29;;;;;;;0.10;0.10;;;;;;;20.58;nan;100595.97;5073740;28;20359;-81
2023/06/23 02:46:57;;;;;;;0.10;0.10;;;;;;;20.58;nan;100604.84;5074273;28;20036;-81
2023/06/23 02:49:26;;;;;;;0.10;0.10;;;;;;;20.60;nan;100607.31;5063222;28;20061;-82
2023/06/23 02:51:57;;;;;;;0.10;0.10;;;;;;;20.60;nan;100610.00;5054302;28;20091;-81
2023/06/23 02:54:25;;;;;;;0.10;0.10;;;;;;;20.60;nan;100625.31;5036791;28;20119;-82
2023/06/23 02:56:52;;;;;;;0.10;0.10;;;;;;;20.61;nan;100621.56;5073562;28;20518;-80
2023/06/23 02:59:20;;;;;;;0.10;0.10;;;;;;;20.63;nan;100631.06;5063640;28;20037;-81
2023/06/23 03:01:48;;;;;;;0.10;0.10;;;;;;;20.68;nan;100628.56;5043145;28;20032;-81
2023/06/23 03:04:14;;;;;;;0.10;0.10;;;;;;;20.71;nan;100638.03;5041589;28;20030;-81
2023/06/23 03:06:40;;;;;;;0.00;0.00;;;;;;;20.70;nan;100631.84;5042154;28;20082;-81
2023/06/23 03:09:06;;;;;;;0.08;0.08;;;;;;;20.70;nan;100642.59;5060322;28;20033;-82
2023/06/23 03:11:33;;;;;;;0.10;0.10;;;;;;;20.74;nan;100632.25;5057494;28;20078;-82
2023/06/23 03:13:59;;;;;;;0.10;0.10;;;;;;;20.77;nan;100637.19;5067009;28;20040;-81
2023/06/23 03:16:49;;;;;;;0.10;0.10;;;;;;;20.80;nan;100639.44;5049704;28;20377;-81
2023/06/23 03:19:29;;;;;;;0.10;0.10;;;;;;;20.76;nan;100636.38;5034483;28;20091;-81
2023/06/23 03:22:01;;;;;;;0.10;0.10;;;;;;;20.73;nan;100644.03;5038539;28;20037;-80
2023/06/23 03:24:30;;;;;;;0.10;0.10;;;;;;;20.76;nan;100648.97;5046949;28;20044;-81
2023/06/23 03:26:58;;;;;;;0.10;0.10;;;;;;;20.79;nan;100645.88;5057614;28;20032;-80
2023/06/23 03:29:29;;;;;;;0.10;0.10;;;;;;;20.79;nan;100643.19;5058194;28;20028;-80
2023/06/23 03:31:58;;;;;;;0.10;0.10;;;;;;;20.81;nan;100648.31;5065875;28;20064;-81
2023/06/23 03:34:33;;;;;;;0.10;0.10;;;;;;;20.81;nan;100646.47;5040131;28;20028;-80
2023/06/23 03:37:00;;;;;;;0.10;0.10;;;;;;;20.81;nan;100648.31;5074530;28;20060;-81
2023/06/23 03:39:30;;;;;;;0.10;0.10;;;;;;;20.83;nan;100657.00;5087100;28;20517;-81
2023/06/23 03:41:56;;;;;;;0.10;0.10;;;;;;;20.74;nan;100659.13;5082263;28;20043;-80
2023/06/23 03:44:28;;;;;;;0.10;0.10;;;;;;;20.73;nan;100658.28;5079529;28;20443;-81
2023/06/23 03:46:55;;;;;;;;;;;;;;;20.69;nan;100675.91;5066315;28;20048;-82
2023/06/23 03:49:27;;;;;;;0.10;0.10;;;;;;;20.61;nan;100669.94;5073506;28;19974;-81
2023/06/23 03:51:55;;;;;;;0.10;0.10;;;;;;;20.57;nan;100674.94;5058401;28;20033;-81
2023/06/23 03:54:22;;;;;;;0.10;0.10;;;;;;;20.47;nan;100679.88;5053970;28;20033;-81
2023/06/23 03:56:49;;;;;;;0.10;0.10;;;;;;;20.28;nan;100695.84;5058925;28;20540;-81
2023/06/23 03:59:17;;;;;;;0.10;0.10;;;;;;;19.98;nan;100700.91;5058878;28;20036;-81
2023/06/23 04:01:44;;;;;;;0.10;0.10;;;;;;;19.65;nan;100708.97;5059460;28;20055;-81
2023/06/23 04:04:11;;;;;;;0.10;0.10;;;;;;;19.44;nan;100710.00;5048056;28;20036;-81
2023/06/23 04:06:39;;;;;;;0.10;0.10;;;;;;;19.33;nan;100710.59;5061812;28;20054;-81
2023/06/23 04:09:07;;;;;;;0.10;0.10;;;;;;;19.17;nan;100712.66;5052048;28;20086;-82
2023/06/23 04:11:35;;;;;;;0.10;0.10;;;;;;;19.03;nan;100727.88;5052440;28;20030;-81
2023/06/23 04:14:02;;;;;;;0.10;0.10;;;;;;;18.91;nan;100726.00;5051054;28;20034;-82
2023/06/23 04:16:28;;;;;;;0.10;0.10;;;;;;;18.86;nan;100727.41;5053674;28;20041;-82
2023/06/23 04:18:56;;;;;;;0.10;0.10;;;;;;;18.88;nan;100732.59;5038499;28;20041;-82
2023/06/23 04:21:23;;;;;;;0.10;0.10;;;;;;;18.80;nan;100716.66;5048336;28;20446;-82
2023/06/23 04:23:53;;;;;;;0.10;0.10;;;;;;;18.66;nan;100727.31;5035753;28;20045;-82
2023/06/23 04:26:18;;;;;;;0.10;0.10;;;;;;;18.70;nan;100726.91;5055556;28;20029;-81
2023/06/23 04:28:46;;;;;;;0.10;0.10;;;;;;;18.86;nan;100732.78;5038555;28;20091;-81
2023/06/23 04:31:14;;;;;;;0.10;0.10;;;;;;;18.99;nan;100729.28;5057052;28;20033;-81
2023/06/23 04:33:39;;;;;;;0.10;0.10;;;;;;;19.18;nan;100740.28;5056472;28;20037;-82
2023/06/23 04:36:12;;;;;;;0.10;0.10;;;;;;;19.33;nan;100740.94;5037192;28;20049;-82
2023/06/23 04:38:59;;;;;;;0.10;0.10;;;;;;;19.46;nan;100740.94;5064403;28;20032;-84
2023/06/23 04:41:27;;;;;;;0.10;0.10;;;;;;;19.55;nan;100743.44;5045700;28;20048;-83
2023/06/23 04:43:56;;;;;;;0.10;0.10;;;;;;;19.63;nan;100748.59;5053883;28;20044;-80
2023/06/23 04:46:29;;;;;;;0.10;0.10;;;;;;;19.60;nan;100751.69;5035654;28;20041;-80
2023/06/23 04:49:08;;;;;;;0.10;0.10;;;;;;;19.64;nan;100761.81;5053722;28;20136;-80
2023/06/23 04:51:39;;;;;;;0.10;0.10;;;;;;;19.58;nan;100759.09;5053892;28;20106;-79
2023/06/23 04:54:10;;;;;;;0.10;0.10;;;;;;;19.64;nan;100761.81;5033831;28;20029;-81
2023/06/23 04:56:39;;;;;;;0.10;0.10;;;;;;;19.70;nan;100766.34;5064765;28;20036;-80
2023/06/23 04:59:07;;;;;;;0.10;0.10;;;;;;;19.75;nan;100773.78;5046341;28;20387;-81
2023/06/23 05:01:33;;;;;;;0.10;0.10;;;;;;;19.82;nan;100771.13;5039122;28;20108;-79
2023/06/23 05:04:01;;;;;;;0.10;0.10;;;;;;;19.84;nan;100779.78;5036516;28;20510;-81
2023/06/23 05:06:28;;;;;;;0.10;0.10;;;;;;;19.82;nan;100777.28;5035832;28;20052;-81
2023/06/23 05:08:55;;;;;;;0.10;0.10;;;;;;;19.81;nan;100781.03;5054679;28;20033;-82
2023/06/23 05:11:23;;;;;;;0.10;0.10;;;;;;;19.91;nan;100770.69;5049988;28;20036;-80
2023/06/23 05:13:50;;;;;;;0.10;0.10;;;;;;;19.94;nan;100772.13;5058051;28;20373;-79
2023/06/23 05:16:17;;;;;;;0.10;0.10;;;;;;;19.90;nan;100787.00;5035008;28;20118;-80
2023/06/23 05:18:45;;;;;;;0.10;0.10;;;;;;;19.90;nan;100781.63;5052990;28;20518;-79
2023/06/23 05:21:12;;;;;;;0.10;0.10;;;;;;;19.85;nan;100806.41;5054056;28;20529;-81
2023/06/23 05:23:40;;;;;;;0.10;0.10;;;;;;;19.85;nan;100803.72;5053115;28;20043;-80
2023/06/23 05:26:07;;;;;;;0.10;0.10;;;;;;;19.85;nan;100816.31;5053730;28;20440;-79
2023/06/23 05:28:35;;;;;;;0.10;0.10;;;;;;;19.90;nan;100816.50;5074046;28;20039;-81
2023/06/23 05:31:02;;;;;;;0.10;0.10;;;;;;;19.95;nan;100816.75;5055299;28;20032;-80
2023/06/23 05:33:34;;;;;;;0.10;0.10;;;;;;;19.97;nan;100825.41;5034948;28;20040;-80
2023/06/23 05:36:01;;;;;;;0.10;0.10;;;;;;;19.90;nan;100825.41;5053221;28;20060;-80
2023/06/23 05:38:47;;;;;;;0.10;0.10;;;;;;;19.91;nan;100829.75;5053116;28;20061;-81
2023/06/23 05:41:13;;;;;;;0.10;0.10;;;;;;;19.94;nan;100829.31;5036990;28;20040;-81
2023/06/23 05:43:39;;;;;;;0.10;0.10;;;;;;;19.84;nan;100831.59;5056882;28;20041;-81
2023/06/23 05:46:10;;;;;;;0.10;0.10;;;;;;;19.92;nan;100841.28;5075666;28;20085;-81
2023/06/23 05:48:44;;;;;;;0.10;0.10;;;;;;;19.92;nan;100843.97;5053255;28;20029;-82
2023/06/23 05:51:15;;;;;;;0.10;0.10;;;;;;;19.83;nan;100839.84;5048439;28;20072;-80
2023/06/23 05:53:43;;;;;;;0.10;0.10;;;;;;;19.75;nan;100843.56;5020214;28;20855;-81
2023/06/23 05:56:17;;;;;;;0.10;0.10;;;;;;;19.76;nan;100847.91;5036993;28;20068;-81
2023/06/23 05:58:46;;;;;;;0.10;0.10;;;;;;;19.85;nan;100853.88;5040809;28;20041;-81
2023/06/23 06:01:19;;;;;;;0.10;0.10;;;;;;;19.95;nan;100862.38;5045884;28;20509;-81
2023/06/23 06:04:01;;;;;;;0.10;0.10;;;;;;;20.05;nan;100854.72;5039505;28;20049;-81
2023/06/23 06:06:28;;;;;;;0.10;0.10;;;;;;;20.07;nan;100859.88;5038426;28;20039;-81
2023/06/23 06:08:57;;;;;;;0.10;0.10;;;;;;;20.23;nan;100866.69;5035826;28;20036;-82
2023/06/23 06:11:25;;;;;;;0.10;0.10;;;;;;;20.26;nan;100864.44;5027915;28;20107;-82
2023/06/23 06:13:51;;;;;;;0.10;0.10;;;;;;;20.39;nan;100877.03;5029095;28;20067;-82
2023/06/23 06:16:18;;;;;;;0.10;0.10;;;;;;;20.59;nan;100877.03;5058144;28;20041;-82
2023/06/23 06:18:46;;;;;;;0.10;0.10;;;;;;;20.61;nan;100883.03;5050358;28;20048;-82
2023/06/23 06:21:14;;;;;;;0.10;0.10;;;;;;;20.70;nan;100879.06;5057444;28;20032;-81
2023/06/23 06:23:41;;;;;;;0.10;0.10;;;;;;;20.65;nan;100896.88;5057741;28;20123;-78
2023/06/23 06:26:09;;;;;;;0.10;0.10;;;;;;;20.60;nan;100894.81;5072968;28;20036;-78
2023/06/23 06:28:36;;;;;;;0.10;0.10;;;;;;;20.43;nan;100921.25;5075251;28;20589;-79
2023/06/23 06:31:12;;;;;;;0.10;0.10;;;;;;;20.33;nan;100918.13;5081306;28;20033;-78
2023/06/23 06:33:41;;;;;;;0.10;0.10;;;;;;;20.30;nan;100927.44;5053742;28;20068;-79
2023/06/23 06:36:11;;;;;;;0.10;0.10;;;;;;;20.24;nan;100930.13;5045421;28;20033;-77
2023/06/23 06:38:38;;;;;;;0.10;0.10;;;;;;;20.14;nan;100944.78;5067862;28;20048;-77
2023/06/23 06:41:08;;;;;;;0.10;0.10;;;;;;;20.05;nan;100939.81;5047044;28;20083;-77
2023/06/23 06:43:34;;;;;;;0.10;0.10;;;;;;;20.08;nan;100940.22;5078810;28;20036;-77
2023/06/23 06:46:01;;;;;;;0.10;0.10;;;;;;;20.21;nan;100941.25;5055960;28;20037;-78
2023/06/23 06:48:33;;;;;;;0.10;0.10;;;;;;;20.11;nan;100936.31;5045588;28;20103;-77
2023/06/23 06:50:58;;;;;;;0.10;0.10;;;;;;;20.19;nan;100946.00;5044923;28;20120;-78
2023/06/23 06:53:25;;;;;;;0.10;0.10;;;;;;;20.37;nan;100951.63;5047629;28;20048;-78
2023/06/23 06:55:51;;;;;;;0.10;0.10;;;;;;;20.64;nan;100941.75;5043924;28;20050;-78
2023/06/23 06:58:17;;;;;;;0.10;0.10;;;;;;;21.27;nan;100945.75;5039583;28;20057;-78
2023/06/23 07:00:43;;;;;;;0.10;0.10;;;;;;;21.93;nan;100947.28;5057003;28;20044;-78
2023/06/23 07:03:11;;;;;;;0.08;0.08;;;;;;;22.59;nan;100946.84;5066601;28;20032;-78
2023/06/23 07:05:36;;;;;;;0.10;0.10;;;;;;;22.73;nan;100954.81;5055128;28;20410;-79
2023/06/23 07:08:03;;;;;;;0.10;0.10;;;;;;;23.16;nan;100956.69;5061916;28;20116;-78
2023/06/23 07:10:29;;;;;;;0.10;0.10;;;;;;;23.28;nan;100947.59;5065187;28;20037;-77
2023/06/23 07:12:54;;;;;;;0.00;0.00;;;;;;;23.66;nan;100961.88;5054486;28;20045;-77
2023/06/23 07:15:20;;;;;;;0.00;0.00;;;;;;;23.52;nan;100959.34;5021236;28;20124;-78
2023/06/23 07:17:45;;;;;;;0.00;0.00;;;;;;;23.31;nan;100966.06;5022685;28;20032;-78
2023/06/23 07:20:11;;;;;;;0.00;0.00;;;;;;;23.17;nan;100974.50;5048091;28;20059;-79
2023/06/23 07:22:36;;;;;;;0.10;0.10;;;;;;;23.03;nan;100974.66;5059035;28;20032;-78
2023/06/23 07:25:02;;;;;;;0.05;0.05;;;;;;;23.06;nan;100974.22;5060174;28;20040;-77
2023/06/23 07:27:27;;;;;;;0.00;0.00;;;;;;;23.23;nan;100968.22;5065943;28;20057;-76
2023/06/23 07:29:52;;;;;;;0.00;0.00;;;;;;;23.20;nan;100974.09;5056939;28;20083;-77
2023/06/23 07:32:18;;;;;;;0.10;0.10;;;;;;;23.19;nan;100977.81;5038463;28;20123;-79
2023/06/23 07:34:43;;;;;;;0.00;0.00;;;;;;;22.92;nan;100979.94;5062735;28;20036;-77
2023/06/23 07:37:09;;;;;;;0.00;0.00;;;;;;;22.82;nan;100977.75;5043402;28;20040;-77
2023/06/23 07:39:36;;;;;;;0.00;0.00;;;;;;;22.49;nan;100984.25;5053852;28;20742;-78
2023/06/23 07:42:01;;;;;;;0.00;0.00;;;;;;;22.38;nan;100979.56;5051835;28;20129;-76
2023/06/23 07:44:27;;;;;;;0.10;0.10;;;;;;;22.44;nan;100994.88;5046693;28;20082;-76
2023/06/23 07:46:52;;;;;;;0.10;0.10;;;;;;;22.46;nan;100990.91;5033692;28;20032;-76
2023/06/23 07:49:18;;;;;;;0.10;0.10;;;;;;;22.55;nan;100996.00;5034187;28;20041;-75
2023/06/23 07:51:46;;;;;;;0.00;0.00;;;;;;;22.82;nan;101002.03;5043454;28;20037;-76
2023/06/23 07:54:11;;;;;;;0.10;0.10;;;;;;;22.65;nan;101001.75;5038027;28;20459;-76
2023/06/23 07:56:37;;;;;;;0.10;0.10;;;;;;;22.75;nan;101010.16;5028700;28;20505;-77
2023/06/23 07:59:03;;;;;;;0.10;0.10;;;;;;;22.81;nan;101000.34;5047479;28;20040;-76
2023/06/23 08:01:28;;;;;;;0.00;0.00;;;;;;;22.97;nan;101007.06;5059131;28;20058;-76
2023/06/23 08:03:54;;;;;;;0.10;0.10;;;;;;;22.98;nan;101006.03;5052775;28;20040;-75
2023/06/23 08:06:23;;;;;;;0.10;0.10;;;;;;;22.77;nan;101023.44;5038842;28;20486;-76
2023/06/23 08:08:50;;;;;;;0.10;0.10;;;;;;;22.54;nan;101024.84;5039588;28;20044;-77
2023/06/23 08:11:15;;;;;;;0.00;0.00;;;;;;;22.58;nan;101020.66;5053055;28;20513;-75
2023/06/23 08:13:40;;;;;;;0.10;0.10;;;;;;;22.97;nan;101018.66;5016801;28;20069;-75
2023/06/23 08:16:06;;;;;;;0.10;0.10;;;;;;;23.74;nan;101019.16;5033002;28;20029;-78
2023/06/23 08:18:31;;;;;;;0.10;0.10;;;;;;;24.58;nan;101021.09;5053383;28;20033;-78
2023/06/23 08:20:57;;;;;;;0.00;0.00;;;;;;;24.82;nan;101021.94;5053636;28;20041;-78
2023/06/23 08:23:22;;;;;;;0.00;0.00;;;;;;;24.16;nan;101032.69;5060550;28;20040;-78
2023/06/23 08:25:48;;;;;;;0.00;0.00;;;;;;;23.98;nan;101034.63;5028827;28;20033;-79
2023/06/23 08:28:13;;;;;;;0.00;0.00;;;;;;;23.57;nan;101036.97;5033326;28;20037;-78
2023/06/23 08:30:40;;;;;;;0.00;0.00;;;;;;;24.05;nan;101032.66;5053140;28;20036;-79
2023/06/23 08:33:05;;;;;;;0.00;0.00;;;;;;;24.38;nan;101033.03;5053318;28;20044;-79
2023/06/23 08:35:31;;;;;;;0.00;0.00;;;;;;;24.38;nan;101038.44;5034127;28;20029;-79
2023/06/23 08:37:57;;;;;;;0.10;0.10;;;;;;;24.31;nan;101039.56;5052685;28;20041;-78
2023/06/23 08:40:22;;;;;;;0.00;0.00;;;;;;;24.11;nan;101039.84;5051268;28;20045;-79
2023/06/23 08:42:48;;;;;;;0.00;0.00;;;;;;;24.55;nan;101032.34;5031396;28;20102;-79
2023/06/23 08:45:17;;;;;;;0.00;0.00;;;;;;;25.50;nan;101030.50;5052470;28;20051;-79
2023/06/23 08:47:52;;;;;;;0.00;0.00;;;;;;;25.90;nan;101035.16;5041182;28;20474;-79
2023/06/23 08:50:20;;;;;;;0.00;0.00;;;;;;;25.55;nan;101050.41;5049176;28;20491;-79
2023/06/23 08:52:46;;;;;;;0.00;0.00;;;;;;;24.99;nan;101051.84;5052719;28;20141;-78
2023/06/23 08:55:11;;;;;;;0.00;0.00;;;;;;;24.60;nan;101054.16;5050719;28;20093;-79
2023/06/23 08:57:38;;;;;;;0.00;0.00;;;;;;;24.83;nan;101052.53;5034621;28;20560;-78
2023/06/23 09:00:06;;;;;;;0.00;0.00;;;;;;;25.30;nan;101053.38;5041832;28;20037;-78
2023/06/23 09:02:31;;;;;;;0.00;0.00;;;;;;;25.21;nan;101069.16;5046800;28;20127;-79
2023/06/23 09:04:57;;;;;;;0.00;0.00;;;;;;;25.31;nan;101067.72;5032067;28;20586;-79
2023/06/23 09:07:24;;;;;;;0.00;0.00;;;;;;;24.91;nan;101071.13;5049505;28;20081;-79
2023/06/23 09:09:50;;;;;;;0.00;0.00;;;;;;;25.25;nan;101071.41;5047916;28;20045;-79
2023/06/23 09:12:16;;;;;;;0.00;0.00;;;;;;;25.55;nan;101068.53;5046660;28;20087;-78
2023/06/23 09:14:43;;;;;;;0.00;0.00;;;;;;;25.53;nan;101062.53;5027407;28;20048;-78
2023/06/23 09:17:10;;;;;;;0.00;0.00;;;;;;;25.54;nan;101062.28;5046851;28;20112;-78
2023/06/23 09:19:38;;;;;;;0.00;0.00;;;;;;;25.80;nan;101057.41;5023700;28;20033;-78
2023/06/23 09:22:08;;;;;;;0.00;0.00;;;;;;;25.87;nan;101076.28;5048325;28;20036;-78
2023/06/23 09:24:41;;;;;;;0.00;0.00;;;;;;;26.38;nan;101074.53;5050280;28;20391;-78
2023/06/23 09:27:06;;;;;;;0.00;0.00;;;;;;;27.05;nan;101062.91;5048132;28;20060;-78
2023/06/23 09:29:32;;;;;;;0.00;0.00;;;;;;;27.06;nan;101068.09;5049418;28;20045;-78
2023/06/23 09:31:59;;;;;;;0.00;0.00;;;;;;;26.96;nan;101073.38;5049404;28;20040;-80
2023/06/23 09:34:30;;;;;;;0.00;0.00;;;;;;;26.92;nan;101065.97;5051003;28;20057;-78
2023/06/23 09:37:08;;;;;;;0.10;0.10;;;;;;;27.02;nan;101058.81;5037055;28;20900;-78
2023/06/23 09:39:38;;;;;;;0.00;0.00;;;;;;;27.89;nan;101061.94;5058772;28;20108;-78
2023/06/23 09:42:11;;;;;;;0.00;0.00;;;;;;;27.05;nan;101068.34;5056950;28;20071;-79
2023/06/23 09:44:38;;;;;;;0.00;0.00;;;;;;;27.35;nan;101075.34;5059951;28;20036;-78
2023/06/23 09:47:05;;;;;;;0.00;0.00;;;;;;;28.53;nan;101077.53;5060097;28;20037;-79
2023/06/23 09:49:40;;;;;;;0.00;0.00;;;;;;;29.54;nan;101073.13;5036023;28;20040;-79
2023/06/23 09:52:07;;;;;;;0.00;0.00;;;;;;;30.45;nan;101083.50;5049653;28;20056;-78
2023/06/23 09:54:39;;;;;;;0.00;0.00;;;;;;;31.44;nan;101082.38;5049559;28;20045;-78
2023/06/23 09:57:07;;;;;;;0.00;0.00;;;;;;;32.39;nan;101089.56;5036938;28;20040;-78
2023/06/23 09:59:33;;;;;;;0.00;0.00;;;;;;;32.36;nan;101093.69;5048980;28;20033;-78
2023/06/23 10:01:58;;;;;;;0.00;0.00;;;;;;;31.83;nan;101076.22;5048443;28;20056;-78
2023/06/23 10:04:29;;;;;;;0.00;0.00;;;;;;;32.41;nan;101076.41;5033073;28;20396;-78
2023/06/23 10:06:55;;;;;;;0.00;0.00;;;;;;;31.38;nan;101070.63;5053488;28;20065;-78
2023/06/23 10:09:59;;;;;;;0.00;0.00;;;;;;;29.92;nan;101087.47;5033162;28;20036;-78
2023/06/23 10:12:27;;;;;;;0.00;0.00;;;;;;;29.94;nan;101099.75;5032071;28;20688;-79
2023/06/23 10:14:56;;;;;;;0.00;0.00;;;;;;;30.41;nan;101085.13;5051642;28;20041;-78
2023/06/23 10:17:22;;;;;;;0.00;0.00;;;;;;;29.95;nan;101084.22;5054210;28;20064;-78
2023/06/23 10:19:49;;;;;;;0.00;0.00;;;;;;;29.48;nan;101098.69;5050861;28;20041;-79
2023/06/23 10:22:18;;;;;;;0.00;0.00;;;;;;;28.82;nan;101108.03;5032484;28;20135;-77
2023/06/23 10:24:46;;;;;;;0.00;0.00;;;;;;;28.35;nan;101098.56;5032843;28;20033;-78
2023/06/23 10:27:16;;;;;;;0.00;0.00;;;;;;;28.04;nan;101096.63;5061512;28;20453;-78
2023/06/23 10:29:49;;;;;;;0.00;0.00;;;;;;;27.46;nan;101088.81;5047273;28;20041;-78
2023/06/23 10:32:15;;;;;;;;;;;;;;;26.87;nan;101094.69;5046523;28;20041;-78
2023/06/23 10:34:41;;;;;;;0.00;0.00;;;;;;;26.35;nan;101105.66;5047288;28;19959;-78
2023/06/23 10:37:11;;;;;;;0.00;0.00;;;;;;;26.06;nan;101105.66;5049127;28;20320;-78
2023/06/23 10:39:38;;;;;;;0.00;0.00;;;;;;;25.63;nan;101096.06;5048436;28;20040;-78
2023/06/23 10:42:06;;;;;;;0.00;0.00;;;;;;;26.26;nan;101101.69;5055774;28;20033;-78
2023/06/23 10:44:31;;;;;;;0.00;0.00;;;;;;;26.81;nan;101100.25;5028199;28;20423;-78
2023/06/23 10:46:57;;;;;;;0.00;0.00;;;;;;;27.76;nan;101095.69;5043169;28;20040;-77
2023/06/23 10:49:22;;;;;;;0.00;0.00;;;;;;;29.00;nan;101098.63;5044126;28;20037;-77
2023/06/23 10:51:48;;;;;;;0.00;0.00;;;;;;;29.58;nan;101105.03;5049989;28;20060;-77
2023/06/23 10:54:25;;;;;;;0.00;0.00;;;;;;;30.71;nan;101104.56;5041932;28;20194;-78
2023/06/23 10:56:54;;;;;;;0.00;0.00;;;;;;;31.42;nan;101101.00;5056042;28;20110;-78
2023/06/23 10:59:29;;;;;;;0.00;0.00;;;;;;;30.78;nan;101096.91;5052515;28;20616;-77
2023/06/23 11:02:04;;;;;;;0.00;0.00;;;;;;;29.87;nan;101111.97;5029254;28;20057;-78
2023/06/23 11:04:32;;;;;;;0.00;0.00;;;;;;;30.77;nan;101108.91;5046783;28;20045;-78
2023/06/23 11:07:05;;;;;;;0.00;0.00;;;;;;;29.18;nan;101111.06;5046081;28;20609;-78
2023/06/23 11:10:01;;;;;;;0.00;0.00;;;;;;;29.14;nan;101115.38;5024977;28;20402;-78
2023/06/23 11:12:38;;;;;;;0.00;0.00;;;;;;;28.21;nan;101118.28;5026037;28;20037;-77
2023/06/23 11:15:21;;;;;;;0.00;0.00;;;;;;;27.14;nan;101115.72;5043160;28;20044;-78
2023/06/23 11:17:49;;;;;;;0.00;0.00;;;;;;;26.35;nan;101116.50;5048327;28;20375;-79
2023/06/23 11:20:24;;;;;;;0.00;0.00;;;;;;;26.75;nan;101121.06;5050100;28;20640;-79
2023/06/23 11:22:53;;;;;;;0.00;0.00;;;;;;;26.74;nan;101121.28;5050883;28;20130;-79
2023/06/23 11:25:46;;;;;;;0.00;0.00;;;;;;;26.47;nan;101121.88;5053777;28;20385;-82
2023/06/23 11:28:33;;;;;;;0.00;0.00;;;;;;;26.05;nan;101123.00;5039977;28;20408;-80
2023/06/23 11:31:07;;;;;;;0.00;0.00;;;;;;;26.12;nan;101130.97;5054248;28;20397;-80
2023/06/23 11:33:33;;;;;;;0.00;0.00;;;;;;;25.92;nan;101125.97;5052080;28;20036;-80
2023/06/23 11:36:19;;;;;;;0.00;0.00;;;;;;;25.97;nan;101136.91;5048961;28;21002;-80
2023/06/23 11:42:32;;;;;;;0.00;0.00;;;;;;;25.49;nan;101139.91;5048847;28;20147;-79
2023/06/23 11:44:58;;;;;;;0.00;0.00;;;;;;;25.27;nan;101128.84;5050499;28;20033;-80
2023/06/23 11:47:25;;;;;;;0.00;0.00;;;;;;;25.27;nan;101135.06;5053355;28;20139;-82
2023/06/23 11:49:52;;;;;;;0.00;0.00;;;;;;;25.80;nan;101144.09;5047185;28;21010;-80
2023/06/23 11:52:21;;;;;;;0.00;0.00;;;;;;;26.21;nan;101142.25;5053534;28;20041;-82
2023/06/23 11:54:48;;;;;;;0.00;0.00;;;;;;;26.26;nan;101145.88;5036571;28;20453;-77